sensor_id;sensor_type;location;lat;lon;timestamp;P1;durP1;ratioP1;P2;durP2;ratioP2
29960;SDS011;16816;44.444;26.152;2022-10-04T00:02:17;3.33;;;2.33;;
29960;SDS011;16816;44.444;26.152;2022-10-04T00:07:25;2.83;;;2.30;;
29960;SDS011;16816;44.444;26.152;2022-10-04T00:12:32;3.80;;;2.80;;
29960;SDS011;16816;44.444;26.152;2022-10-04T00:17:40;4.28;;;2.45;;
29960;SDS011;16816;44.444;26.152;2022-10-04T00:23:11;3.95;;;2.20;;
29960;SDS011;16816;44.444;26.152;2022-10-04T00:28:38;2.42;;;2.20;;
29960;SDS011;16816;44.444;26.152;2022-10-04T00:33:48;3.33;;;2.45;;
29960;SDS011;16816;44.444;26.152;2022-10-04T00:39:00;4.40;;;2.70;;
29960;SDS011;16816;44.444;26.152;2022-10-04T00:44:08;5.00;;;2.83;;
29960;SDS011;16816;44.444;26.152;2022-10-04T00:49:17;3.90;;;2.75;;
29960;SDS011;16816;44.444;26.152;2022-10-04T00:54:25;6.10;;;3.10;;
29960;SDS011;16816;44.444;26.152;2022-10-04T00:59:33;2.97;;;2.67;;
29960;SDS011;16816;44.444;26.152;2022-10-04T01:09:45;3.70;;;2.83;;
29960;SDS011;16816;44.444;26.152;2022-10-04T01:14:53;4.60;;;2.90;;
29960;SDS011;16816;44.444;26.152;2022-10-04T01:20:12;3.70;;;2.70;;
29960;SDS011;16816;44.444;26.152;2022-10-04T01:25:47;3.15;;;2.50;;
29960;SDS011;16816;44.444;26.152;2022-10-04T01:30:52;4.53;;;2.60;;
29960;SDS011;16816;44.444;26.152;2022-10-04T01:35:56;4.65;;;2.88;;
29960;SDS011;16816;44.444;26.152;2022-10-04T01:41:02;3.22;;;2.70;;
29960;SDS011;16816;44.444;26.152;2022-10-04T01:46:08;4.55;;;2.80;;
29960;SDS011;16816;44.444;26.152;2022-10-04T01:56:22;5.43;;;3.03;;
29960;SDS011;16816;44.444;26.152;2022-10-04T02:01:28;4.45;;;2.95;;
29960;SDS011;16816;44.444;26.152;2022-10-04T02:06:35;4.68;;;3.30;;
29960;SDS011;16816;44.444;26.152;2022-10-04T02:11:42;7.43;;;3.10;;
29960;SDS011;16816;44.444;26.152;2022-10-04T02:16:47;4.13;;;3.15;;
29960;SDS011;16816;44.444;26.152;2022-10-04T02:26:58;6.30;;;3.25;;
29960;SDS011;16816;44.444;26.152;2022-10-04T02:32:02;3.90;;;2.53;;
29960;SDS011;16816;44.444;26.152;2022-10-04T02:37:25;6.70;;;2.75;;
29960;SDS011;16816;44.444;26.152;2022-10-04T02:42:36;3.60;;;3.03;;
29960;SDS011;16816;44.444;26.152;2022-10-04T02:47:48;5.57;;;3.30;;
29960;SDS011;16816;44.444;26.152;2022-10-04T02:52:55;5.45;;;2.83;;
29960;SDS011;16816;44.444;26.152;2022-10-04T02:58:06;3.70;;;3.00;;
29960;SDS011;16816;44.444;26.152;2022-10-04T03:03:16;5.10;;;3.10;;
29960;SDS011;16816;44.444;26.152;2022-10-04T03:08:24;5.07;;;3.30;;
29960;SDS011;16816;44.444;26.152;2022-10-04T03:13:30;6.90;;;3.30;;
29960;SDS011;16816;44.444;26.152;2022-10-04T03:18:34;4.47;;;2.88;;
29960;SDS011;16816;44.444;26.152;2022-10-04T03:23:39;4.40;;;3.50;;
29960;SDS011;16816;44.444;26.152;2022-10-04T03:28:44;3.90;;;3.00;;
29960;SDS011;16816;44.444;26.152;2022-10-04T03:33:48;4.53;;;3.70;;
29960;SDS011;16816;44.444;26.152;2022-10-04T03:38:53;6.55;;;3.30;;
29960;SDS011;16816;44.444;26.152;2022-10-04T03:43:59;4.97;;;3.30;;
29960;SDS011;16816;44.444;26.152;2022-10-04T03:49:06;3.95;;;3.00;;
29960;SDS011;16816;44.444;26.152;2022-10-04T03:54:10;6.32;;;3.67;;
29960;SDS011;16816;44.444;26.152;2022-10-04T03:59:20;7.95;;;3.50;;
29960;SDS011;16816;44.444;26.152;2022-10-04T04:04:28;7.72;;;4.10;;
29960;SDS011;16816;44.444;26.152;2022-10-04T04:09:40;5.13;;;3.60;;
29960;SDS011;16816;44.444;26.152;2022-10-04T04:14:48;7.28;;;3.55;;
29960;SDS011;16816;44.444;26.152;2022-10-04T04:19:53;9.43;;;3.83;;
29960;SDS011;16816;44.444;26.152;2022-10-04T04:25:06;6.72;;;3.83;;
29960;SDS011;16816;44.444;26.152;2022-10-04T04:30:16;10.38;;;5.60;;
29960;SDS011;16816;44.444;26.152;2022-10-04T04:35:21;7.68;;;4.60;;
29960;SDS011;16816;44.444;26.152;2022-10-04T04:40:26;10.80;;;4.28;;
29960;SDS011;16816;44.444;26.152;2022-10-04T04:45:31;10.60;;;4.32;;
29960;SDS011;16816;44.444;26.152;2022-10-04T04:50:36;10.07;;;4.53;;
29960;SDS011;16816;44.444;26.152;2022-10-04T04:55:42;13.77;;;4.90;;
29960;SDS011;16816;44.444;26.152;2022-10-04T05:01:07;6.65;;;4.32;;
29960;SDS011;16816;44.444;26.152;2022-10-04T05:06:20;10.70;;;4.38;;
29960;SDS011;16816;44.444;26.152;2022-10-04T05:11:27;10.43;;;4.88;;
29960;SDS011;16816;44.444;26.152;2022-10-04T05:16:35;6.10;;;3.00;;
29960;SDS011;16816;44.444;26.152;2022-10-04T05:21:41;9.95;;;7.65;;
29960;SDS011;16816;44.444;26.152;2022-10-04T05:26:48;22.02;;;15.43;;
29960;SDS011;16816;44.444;26.152;2022-10-04T05:31:56;22.15;;;11.57;;
29960;SDS011;16816;44.444;26.152;2022-10-04T05:42:27;24.77;;;15.38;;
29960;SDS011;16816;44.444;26.152;2022-10-04T05:47:40;32.67;;;17.92;;
29960;SDS011;16816;44.444;26.152;2022-10-04T05:52:45;20.88;;;9.25;;
29960;SDS011;16816;44.444;26.152;2022-10-04T06:03:31;25.20;;;13.30;;
29960;SDS011;16816;44.444;26.152;2022-10-04T06:08:42;11.95;;;9.75;;
29960;SDS011;16816;44.444;26.152;2022-10-04T06:19:36;17.80;;;11.07;;
29960;SDS011;16816;44.444;26.152;2022-10-04T06:25:02;14.80;;;11.63;;
29960;SDS011;16816;44.444;26.152;2022-10-04T06:30:11;11.45;;;6.20;;
29960;SDS011;16816;44.444;26.152;2022-10-04T06:35:32;14.18;;;5.60;;
29960;SDS011;16816;44.444;26.152;2022-10-04T06:40:56;9.73;;;3.58;;
29960;SDS011;16816;44.444;26.152;2022-10-04T06:46:21;11.88;;;3.90;;
29960;SDS011;16816;44.444;26.152;2022-10-04T06:51:36;7.95;;;4.30;;
29960;SDS011;16816;44.444;26.152;2022-10-04T06:56:52;11.63;;;3.30;;
29960;SDS011;16816;44.444;26.152;2022-10-04T07:02:05;8.63;;;2.70;;
29960;SDS011;16816;44.444;26.152;2022-10-04T07:07:16;12.13;;;3.70;;
29960;SDS011;16816;44.444;26.152;2022-10-04T07:12:37;9.50;;;3.42;;
29960;SDS011;16816;44.444;26.152;2022-10-04T07:17:43;11.63;;;3.70;;
29960;SDS011;16816;44.444;26.152;2022-10-04T07:22:52;5.20;;;3.17;;
29960;SDS011;16816;44.444;26.152;2022-10-04T07:28:00;4.97;;;2.28;;
29960;SDS011;16816;44.444;26.152;2022-10-04T07:33:24;9.32;;;2.03;;
29960;SDS011;16816;44.444;26.152;2022-10-04T07:38:31;3.67;;;2.42;;
29960;SDS011;16816;44.444;26.152;2022-10-04T07:43:39;9.20;;;3.70;;
29960;SDS011;16816;44.444;26.152;2022-10-04T07:48:49;10.48;;;2.65;;
29960;SDS011;16816;44.444;26.152;2022-10-04T07:53:54;8.48;;;2.78;;
29960;SDS011;16816;44.444;26.152;2022-10-04T07:59:06;7.00;;;2.40;;
29960;SDS011;16816;44.444;26.152;2022-10-04T08:04:23;4.30;;;2.53;;
29960;SDS011;16816;44.444;26.152;2022-10-04T08:09:39;4.93;;;1.70;;
29960;SDS011;16816;44.444;26.152;2022-10-04T08:14:52;5.93;;;1.55;;
29960;SDS011;16816;44.444;26.152;2022-10-04T08:20:00;4.10;;;1.70;;
29960;SDS011;16816;44.444;26.152;2022-10-04T08:25:11;2.70;;;1.20;;
29960;SDS011;16816;44.444;26.152;2022-10-04T08:30:19;4.15;;;1.70;;
29960;SDS011;16816;44.444;26.152;2022-10-04T08:35:26;5.70;;;2.10;;
29960;SDS011;16816;44.444;26.152;2022-10-04T08:46:18;7.57;;;2.08;;
29960;SDS011;16816;44.444;26.152;2022-10-04T08:57:34;2.20;;;1.50;;
29960;SDS011;16816;44.444;26.152;2022-10-04T09:02:59;3.40;;;1.52;;
29960;SDS011;16816;44.444;26.152;2022-10-04T09:08:33;0.70;;;0.63;;
29960;SDS011;16816;44.444;26.152;2022-10-04T09:14:17;1.50;;;1.20;;
29960;SDS011;16816;44.444;26.152;2022-10-04T09:19:31;5.80;;;1.10;;
29960;SDS011;16816;44.444;26.152;2022-10-04T09:30:24;5.70;;;1.60;;
29960;SDS011;16816;44.444;26.152;2022-10-04T09:35:41;3.65;;;1.65;;
29960;SDS011;16816;44.444;26.152;2022-10-04T09:46:45;3.10;;;1.70;;
29960;SDS011;16816;44.444;26.152;2022-10-04T09:52:23;1.75;;;1.40;;
29960;SDS011;16816;44.444;26.152;2022-10-04T09:57:38;2.75;;;1.00;;
29960;SDS011;16816;44.444;26.152;2022-10-04T10:08:23;2.42;;;1.25;;
29960;SDS011;16816;44.444;26.152;2022-10-04T10:13:40;8.00;;;1.83;;
29960;SDS011;16816;44.444;26.152;2022-10-04T10:19:02;2.35;;;1.17;;
29960;SDS011;16816;44.444;26.152;2022-10-04T10:30:07;2.90;;;1.52;;
29960;SDS011;16816;44.444;26.152;2022-10-04T10:35:21;2.13;;;1.00;;
29960;SDS011;16816;44.444;26.152;2022-10-04T10:40:35;1.80;;;1.63;;
29960;SDS011;16816;44.444;26.152;2022-10-04T10:45:52;6.78;;;3.38;;
29960;SDS011;16816;44.444;26.152;2022-10-04T10:51:15;2.50;;;1.80;;
29960;SDS011;16816;44.444;26.152;2022-10-04T10:56:35;2.65;;;1.35;;
29960;SDS011;16816;44.444;26.152;2022-10-04T11:07:53;3.47;;;2.10;;
29960;SDS011;16816;44.444;26.152;2022-10-04T11:29:57;3.90;;;1.80;;
29960;SDS011;16816;44.444;26.152;2022-10-04T11:35:31;4.82;;;2.00;;
29960;SDS011;16816;44.444;26.152;2022-10-04T11:40:47;2.65;;;1.40;;
29960;SDS011;16816;44.444;26.152;2022-10-04T11:46:05;2.92;;;2.03;;
29960;SDS011;16816;44.444;26.152;2022-10-04T11:51:35;8.57;;;2.33;;
29960;SDS011;16816;44.444;26.152;2022-10-04T11:57:07;4.23;;;1.63;;
29960;SDS011;16816;44.444;26.152;2022-10-04T12:02:27;3.20;;;1.95;;
29960;SDS011;16816;44.444;26.152;2022-10-04T12:08:04;3.33;;;2.17;;
29960;SDS011;16816;44.444;26.152;2022-10-04T12:24:36;4.00;;;2.15;;
29960;SDS011;16816;44.444;26.152;2022-10-04T12:30:20;4.40;;;1.80;;
29960;SDS011;16816;44.444;26.152;2022-10-04T12:35:29;1.77;;;1.23;;
29960;SDS011;16816;44.444;26.152;2022-10-04T12:40:39;4.03;;;1.90;;
29960;SDS011;16816;44.444;26.152;2022-10-04T12:45:47;4.05;;;2.00;;
29960;SDS011;16816;44.444;26.152;2022-10-04T12:51:02;3.67;;;1.58;;
29960;SDS011;16816;44.444;26.152;2022-10-04T12:56:13;5.60;;;2.38;;
29960;SDS011;16816;44.444;26.152;2022-10-04T13:01:24;6.45;;;2.60;;
29960;SDS011;16816;44.444;26.152;2022-10-04T13:06:34;7.43;;;3.58;;
29960;SDS011;16816;44.444;26.152;2022-10-04T13:11:53;5.72;;;2.90;;
29960;SDS011;16816;44.444;26.152;2022-10-04T13:22:37;6.95;;;2.10;;
29960;SDS011;16816;44.444;26.152;2022-10-04T13:27:58;4.57;;;1.98;;
29960;SDS011;16816;44.444;26.152;2022-10-04T13:33:10;11.40;;;3.85;;
29960;SDS011;16816;44.444;26.152;2022-10-04T13:38:25;6.40;;;2.42;;
29960;SDS011;16816;44.444;26.152;2022-10-04T13:43:51;6.55;;;2.25;;
29960;SDS011;16816;44.444;26.152;2022-10-04T13:49:10;5.38;;;2.50;;
29960;SDS011;16816;44.444;26.152;2022-10-04T13:54:26;14.13;;;9.48;;
29960;SDS011;16816;44.444;26.152;2022-10-04T13:59:51;7.85;;;2.80;;
29960;SDS011;16816;44.444;26.152;2022-10-04T14:16:22;4.57;;;2.22;;
29960;SDS011;16816;44.444;26.152;2022-10-04T14:33:13;2.92;;;2.05;;
29960;SDS011;16816;44.444;26.152;2022-10-04T14:38:41;4.53;;;2.78;;
29960;SDS011;16816;44.444;26.152;2022-10-04T14:43:57;4.45;;;2.28;;
29960;SDS011;16816;44.444;26.152;2022-10-04T14:54:45;5.63;;;2.03;;
29960;SDS011;16816;44.444;26.152;2022-10-04T14:59:58;4.75;;;2.15;;
29960;SDS011;16816;44.444;26.152;2022-10-04T15:05:24;5.18;;;2.70;;
29960;SDS011;16816;44.444;26.152;2022-10-04T15:10:34;5.72;;;1.98;;
29960;SDS011;16816;44.444;26.152;2022-10-04T15:15:40;8.30;;;2.75;;
29960;SDS011;16816;44.444;26.152;2022-10-04T15:20:56;7.30;;;2.60;;
29960;SDS011;16816;44.444;26.152;2022-10-04T15:26:04;5.20;;;2.10;;
29960;SDS011;16816;44.444;26.152;2022-10-04T15:31:16;4.05;;;2.40;;
29960;SDS011;16816;44.444;26.152;2022-10-04T15:41:47;8.10;;;3.30;;
29960;SDS011;16816;44.444;26.152;2022-10-04T15:46:54;10.15;;;7.20;;
29960;SDS011;16816;44.444;26.152;2022-10-04T15:57:52;8.85;;;6.15;;
29960;SDS011;16816;44.444;26.152;2022-10-04T16:03:07;7.25;;;2.08;;
29960;SDS011;16816;44.444;26.152;2022-10-04T16:14:04;8.00;;;3.10;;
29960;SDS011;16816;44.444;26.152;2022-10-04T16:24:27;9.90;;;5.07;;
29960;SDS011;16816;44.444;26.152;2022-10-04T16:29:51;8.63;;;3.65;;
29960;SDS011;16816;44.444;26.152;2022-10-04T16:35:23;10.75;;;4.00;;
29960;SDS011;16816;44.444;26.152;2022-10-04T16:40:31;10.63;;;4.00;;
29960;SDS011;16816;44.444;26.152;2022-10-04T16:45:41;6.90;;;3.75;;
29960;SDS011;16816;44.444;26.152;2022-10-04T16:50:52;8.07;;;5.00;;
29960;SDS011;16816;44.444;26.152;2022-10-04T16:56:16;9.55;;;4.90;;
29960;SDS011;16816;44.444;26.152;2022-10-04T17:07:05;22.50;;;16.23;;
29960;SDS011;16816;44.444;26.152;2022-10-04T17:12:16;16.13;;;9.70;;
29960;SDS011;16816;44.444;26.152;2022-10-04T17:17:22;17.63;;;8.35;;
29960;SDS011;16816;44.444;26.152;2022-10-04T17:22:38;13.07;;;6.93;;
29960;SDS011;16816;44.444;26.152;2022-10-04T17:27:48;10.50;;;5.07;;
29960;SDS011;16816;44.444;26.152;2022-10-04T17:33:01;15.90;;;7.85;;
29960;SDS011;16816;44.444;26.152;2022-10-04T17:38:22;10.40;;;4.45;;
29960;SDS011;16816;44.444;26.152;2022-10-04T17:43:29;12.45;;;6.25;;
29960;SDS011;16816;44.444;26.152;2022-10-04T17:48:39;20.70;;;7.50;;
29960;SDS011;16816;44.444;26.152;2022-10-04T17:54:11;15.30;;;7.43;;
29960;SDS011;16816;44.444;26.152;2022-10-04T17:59:41;19.20;;;7.55;;
29960;SDS011;16816;44.444;26.152;2022-10-04T18:04:48;17.90;;;8.90;;
29960;SDS011;16816;44.444;26.152;2022-10-04T18:09:58;21.98;;;9.93;;
29960;SDS011;16816;44.444;26.152;2022-10-04T18:15:06;11.25;;;7.90;;
29960;SDS011;16816;44.444;26.152;2022-10-04T18:20:21;20.55;;;11.90;;
29960;SDS011;16816;44.444;26.152;2022-10-04T18:25:30;29.42;;;14.30;;
29960;SDS011;16816;44.444;26.152;2022-10-04T18:30:50;9.98;;;6.32;;
29960;SDS011;16816;44.444;26.152;2022-10-04T18:36:02;10.85;;;6.05;;
29960;SDS011;16816;44.444;26.152;2022-10-04T18:41:15;18.52;;;9.27;;
29960;SDS011;16816;44.444;26.152;2022-10-04T18:46:20;17.85;;;8.48;;
29960;SDS011;16816;44.444;26.152;2022-10-04T18:51:27;22.42;;;10.27;;
29960;SDS011;16816;44.444;26.152;2022-10-04T18:56:34;17.57;;;10.83;;
29960;SDS011;16816;44.444;26.152;2022-10-04T19:01:46;22.05;;;10.80;;
29960;SDS011;16816;44.444;26.152;2022-10-04T19:07:06;23.40;;;10.38;;
29960;SDS011;16816;44.444;26.152;2022-10-04T19:12:14;12.55;;;7.85;;
29960;SDS011;16816;44.444;26.152;2022-10-04T19:17:21;15.80;;;6.93;;
29960;SDS011;16816;44.444;26.152;2022-10-04T19:22:33;12.27;;;7.10;;
29960;SDS011;16816;44.444;26.152;2022-10-04T19:27:48;11.02;;;6.68;;
29960;SDS011;16816;44.444;26.152;2022-10-04T19:33:00;10.05;;;6.35;;
29960;SDS011;16816;44.444;26.152;2022-10-04T19:38:16;8.02;;;4.90;;
29960;SDS011;16816;44.444;26.152;2022-10-04T19:43:29;15.00;;;5.38;;
29960;SDS011;16816;44.444;26.152;2022-10-04T19:48:40;18.13;;;6.78;;
29960;SDS011;16816;44.444;26.152;2022-10-04T19:53:47;11.02;;;7.03;;
29960;SDS011;16816;44.444;26.152;2022-10-04T19:58:54;14.37;;;6.57;;
29960;SDS011;16816;44.444;26.152;2022-10-04T20:04:03;7.30;;;5.75;;
29960;SDS011;16816;44.444;26.152;2022-10-04T20:09:30;9.88;;;6.18;;
29960;SDS011;16816;44.444;26.152;2022-10-04T20:19:50;11.63;;;6.50;;
29960;SDS011;16816;44.444;26.152;2022-10-04T20:24:54;12.63;;;5.85;;
29960;SDS011;16816;44.444;26.152;2022-10-04T20:30:02;10.52;;;6.60;;
29960;SDS011;16816;44.444;26.152;2022-10-04T20:35:08;8.90;;;6.00;;
29960;SDS011;16816;44.444;26.152;2022-10-04T20:40:23;8.35;;;5.40;;
29960;SDS011;16816;44.444;26.152;2022-10-04T20:45:47;10.32;;;4.75;;
29960;SDS011;16816;44.444;26.152;2022-10-04T20:50:52;6.22;;;4.50;;
29960;SDS011;16816;44.444;26.152;2022-10-04T20:56:09;6.10;;;4.35;;
29960;SDS011;16816;44.444;26.152;2022-10-04T21:01:21;6.13;;;3.95;;
29960;SDS011;16816;44.444;26.152;2022-10-04T21:06:50;5.65;;;3.30;;
29960;SDS011;16816;44.444;26.152;2022-10-04T21:11:54;7.65;;;3.88;;
29960;SDS011;16816;44.444;26.152;2022-10-04T21:17:00;7.60;;;4.18;;
29960;SDS011;16816;44.444;26.152;2022-10-04T21:22:06;7.68;;;3.78;;
29960;SDS011;16816;44.444;26.152;2022-10-04T21:27:11;4.63;;;3.53;;
29960;SDS011;16816;44.444;26.152;2022-10-04T21:32:31;4.93;;;3.35;;
29960;SDS011;16816;44.444;26.152;2022-10-04T21:37:36;4.82;;;2.90;;
29960;SDS011;16816;44.444;26.152;2022-10-04T21:42:40;5.18;;;2.53;;
29960;SDS011;16816;44.444;26.152;2022-10-04T21:47:45;4.28;;;3.35;;
29960;SDS011;16816;44.444;26.152;2022-10-04T21:52:49;5.43;;;2.15;;
29960;SDS011;16816;44.444;26.152;2022-10-04T21:57:53;5.45;;;3.10;;
29960;SDS011;16816;44.444;26.152;2022-10-04T22:02:58;3.47;;;2.60;;
29960;SDS011;16816;44.444;26.152;2022-10-04T22:08:02;4.73;;;2.80;;
29960;SDS011;16816;44.444;26.152;2022-10-04T22:13:06;3.20;;;2.58;;
29960;SDS011;16816;44.444;26.152;2022-10-04T22:18:11;4.00;;;2.72;;
29960;SDS011;16816;44.444;26.152;2022-10-04T22:23:19;4.45;;;2.47;;
29960;SDS011;16816;44.444;26.152;2022-10-04T22:28:25;4.05;;;2.30;;
29960;SDS011;16816;44.444;26.152;2022-10-04T22:33:32;3.50;;;2.20;;
29960;SDS011;16816;44.444;26.152;2022-10-04T22:38:38;3.67;;;2.42;;
29960;SDS011;16816;44.444;26.152;2022-10-04T22:43:42;3.00;;;2.50;;
29960;SDS011;16816;44.444;26.152;2022-10-04T22:48:47;2.50;;;2.30;;
29960;SDS011;16816;44.444;26.152;2022-10-04T22:53:51;4.10;;;3.20;;
29960;SDS011;16816;44.444;26.152;2022-10-04T22:58:56;4.07;;;2.78;;
29960;SDS011;16816;44.444;26.152;2022-10-04T23:04:02;2.85;;;2.33;;
29960;SDS011;16816;44.444;26.152;2022-10-04T23:09:06;4.55;;;2.95;;
29960;SDS011;16816;44.444;26.152;2022-10-04T23:14:10;3.28;;;2.53;;
29960;SDS011;16816;44.444;26.152;2022-10-04T23:19:16;3.63;;;3.33;;
29960;SDS011;16816;44.444;26.152;2022-10-04T23:24:21;5.75;;;3.53;;
29960;SDS011;16816;44.444;26.152;2022-10-04T23:29:25;4.05;;;2.83;;
29960;SDS011;16816;44.444;26.152;2022-10-04T23:34:33;3.50;;;2.50;;
29960;SDS011;16816;44.444;26.152;2022-10-04T23:39:38;5.95;;;2.92;;
29960;SDS011;16816;44.444;26.152;2022-10-04T23:44:42;4.32;;;3.25;;
29960;SDS011;16816;44.444;26.152;2022-10-04T23:49:48;4.90;;;2.42;;
29960;SDS011;16816;44.444;26.152;2022-10-04T23:54:54;3.72;;;2.47;;
29960;SDS011;16816;44.444;26.152;2022-10-04T23:59:58;5.35;;;2.88;;
